Time;durP1;ratioP1;P1;durP2;ratioP2;P2;SDS_P1;SDS_P2;PMS_P1;PMS_P2;Temp;Humidity;BMP_temperature;BMP_pressure;BME280_temperature;BME280_humidity;BME280_pressure;Samples;Min_cycle;Max_cycle;Signal;HPM_P1;HPM_P2
2024/04/11 00:00:55;;;;;;;22.23;14.80;;;12.90;99.90;;;;;;5420290;26;19996;-59
2024/04/11 00:03:20;;;;;;;17.23;13.93;;;12.90;99.90;;;;;;5419950;26;19995;-59
2024/04/11 00:05:46;;;;;;;22.20;14.93;;;13.00;99.90;;;;;;5419986;26;20422;-59
2024/04/11 00:08:12;;;;;;;23.60;14.43;;;13.00;99.90;;;;;;5418017;26;19999;-59
2024/04/11 00:10:38;;;;;;;21.13;14.50;;;13.00;99.90;;;;;;5420272;26;20438;-59
2024/04/11 00:13:04;;;;;;;20.53;14.50;;;13.00;99.90;;;;;;5419964;26;20010;-58
2024/04/11 00:15:29;;;;;;;22.53;16.03;;;12.90;99.90;;;;;;5419970;26;20000;-59
2024/04/11 00:17:55;;;;;;;22.93;15.87;;;12.90;99.90;;;;;;5419926;26;20007;-59
2024/04/11 00:20:21;;;;;;;20.83;15.40;;;13.00;99.90;;;;;;5419666;26;20046;-59
2024/04/11 00:22:47;;;;;;;20.87;16.70;;;12.80;99.90;;;;;;5419767;26;20059;-59
2024/04/11 00:25:14;;;;;;;23.67;17.70;;;12.80;99.90;;;;;;5419763;26;20007;-60
2024/04/11 00:27:40;;;;;;;27.57;20.10;;;12.80;99.90;;;;;;5419477;26;19996;-60
2024/04/11 00:30:06;;;;;;;23.87;19.10;;;12.90;99.90;;;;;;5420043;26;20031;-60
2024/04/11 00:32:32;;;;;;;21.83;16.60;;;12.80;99.90;;;;;;5419516;26;20060;-60
2024/04/11 00:35:01;;;;;;;22.87;16.33;;;12.70;99.90;;;;;;5419563;26;20007;-59
2024/04/11 00:37:31;;;;;;;23.13;17.50;;;12.60;99.90;;;;;;5419267;26;20033;-59
2024/04/11 00:39:57;;;;;;;24.13;18.17;;;12.60;99.90;;;;;;5419225;26;19995;-58
2024/04/11 00:42:23;;;;;;;25.63;17.67;;;12.50;99.90;;;;;;5419155;26;20003;-58
2024/04/11 00:44:49;;;;;;;24.13;18.33;;;12.50;99.90;;;;;;5419388;26;20409;-58
2024/04/11 00:47:15;;;;;;;23.83;18.30;;;12.40;99.90;;;;;;5419068;26;20006;-58
2024/04/11 00:49:43;;;;;;;26.80;18.13;;;12.30;99.90;;;;;;5419317;26;20306;-58
2024/04/11 00:52:10;;;;;;;25.57;18.47;;;12.30;99.90;;;;;;5419315;26;20519;-58
2024/04/11 00:54:36;;;;;;;27.33;19.13;;;12.20;99.90;;;;;;5419435;26;20040;-59
2024/04/11 00:57:05;;;;;;;27.33;20.00;;;12.20;99.90;;;;;;5419319;26;19999;-59
2024/04/11 00:59:32;;;;;;;27.33;20.53;;;12.10;99.90;;;;;;5419283;26;20326;-59
2024/04/11 01:01:58;;;;;;;23.57;18.97;;;12.10;99.90;;;;;;5419240;26;20011;-58
2024/04/11 01:04:25;;;;;;;25.23;20.90;;;12.00;99.90;;;;;;5419141;26;20410;-59
2024/04/11 01:09:37;;;;;;;31.37;21.07;;;11.90;99.90;;;;;;5419256;26;20004;-58
2024/04/11 01:12:03;;;;;;;34.23;20.47;;;11.90;99.90;;;;;;5419054;26;20069;-58
2024/04/11 01:14:33;;;;;;;24.00;18.47;;;11.90;99.90;;;;;;5419374;26;20035;-59
2024/04/11 01:16:59;;;;;;;26.37;16.53;;;11.80;99.90;;;;;;5419420;26;20007;-59
2024/04/11 01:19:25;;;;;;;27.23;16.33;;;11.80;99.90;;;;;;5419045;26;20322;-59
2024/04/11 01:21:51;;;;;;;28.40;16.30;;;11.70;99.90;;;;;;5419210;26;20000;-59
2024/04/11 01:24:17;;;;;;;23.90;16.97;;;11.70;99.90;;;;;;5419207;26;19996;-59
2024/04/11 01:26:43;;;;;;;26.57;17.37;;;11.70;99.90;;;;;;5418936;26;20014;-59
2024/04/11 01:29:10;;;;;;;20.53;15.87;;;11.70;99.90;;;;;;5418652;26;20003;-59
2024/04/11 01:31:38;;;;;;;22.53;15.23;;;11.60;99.90;;;;;;5418800;26;19995;-59
2024/04/11 01:34:04;;;;;;;20.47;13.97;;;11.70;99.90;;;;;;5418772;26;20437;-59
2024/04/11 01:36:31;;;;;;;20.33;14.87;;;11.60;99.90;;;;;;5418750;26;20434;-59
2024/04/11 01:38:57;;;;;;;20.20;14.03;;;11.70;99.90;;;;;;5418515;26;19995;-59
2024/04/11 01:41:25;;;;;;;22.60;14.87;;;11.70;99.90;;;;;;5417631;26;20003;-59
2024/04/11 01:43:51;;;;;;;23.50;17.10;;;11.70;99.90;;;;;;5418295;26;19995;-59
2024/04/11 01:46:18;;;;;;;25.67;16.20;;;11.70;99.90;;;;;;5418111;26;19999;-59
2024/04/11 01:48:47;;;;;;;25.90;15.70;;;11.80;99.90;;;;;;5418047;26;20426;-59
2024/04/11 01:51:14;;;;;;;20.93;16.07;;;11.80;99.90;;;;;;5418358;26;20015;-59
2024/04/11 01:53:43;;;;;;;34.73;19.90;;;11.70;99.90;;;;;;5418145;26;19999;-60
2024/04/11 01:56:09;;;;;;;43.30;23.67;;;11.70;99.90;;;;;;5418373;26;20352;-59
2024/04/11 01:58:35;;;;;;;37.47;23.57;;;11.50;99.90;;;;;;5418086;26;20000;-59
2024/04/11 02:01:12;;;;;;;37.07;22.10;;;11.50;99.90;;;;;;5418072;26;20007;-59
2024/04/11 02:03:41;;;;;;;29.70;20.50;;;11.50;99.90;;;;;;5418633;26;20414;-59
2024/04/11 02:06:08;;;;;;;32.07;19.60;;;11.60;99.90;;;;;;5418198;26;20450;-59
2024/04/11 02:08:36;;;;;;;30.70;18.43;;;11.60;99.90;;;;;;5417623;26;20003;-59
2024/04/11 02:11:06;;;;;;;22.80;16.97;;;11.60;99.90;;;;;;5418066;26;20023;-59
2024/04/11 02:13:32;;;;;;;26.30;18.10;;;11.50;99.90;;;;;;5417776;26;20007;-59
2024/04/11 02:15:59;;;;;;;24.23;17.03;;;11.50;99.90;;;;;;5417655;26;19995;-59
2024/04/11 02:18:27;;;;;;;26.23;17.40;;;11.50;99.90;;;;;;5418268;26;20042;-59
2024/04/11 02:20:53;;;;;;;23.53;16.40;;;11.50;99.90;;;;;;5417987;26;20010;-59
2024/04/11 02:23:19;;;;;;;22.57;15.57;;;11.40;99.90;;;;;;5417684;26;20010;-59
2024/04/11 02:25:46;;;;;;;23.63;16.40;;;11.50;99.90;;;;;;5417648;26;20020;-59
2024/04/11 02:28:13;;;;;;;21.30;15.70;;;11.40;99.90;;;;;;5417611;26;19995;-59
2024/04/11 02:30:39;;;;;;;22.70;15.43;;;11.30;99.90;;;;;;5417434;26;20042;-59
2024/04/11 02:33:05;;;;;;;22.87;15.63;;;11.30;99.90;;;;;;5417805;26;20341;-59
2024/04/11 02:35:32;;;;;;;24.40;15.67;;;11.20;99.90;;;;;;5417272;26;19995;-59
2024/04/11 02:37:58;;;;;;;20.03;15.17;;;11.20;99.90;;;;;;5417285;26;20040;-59
2024/04/11 02:40:25;;;;;;;22.77;15.47;;;11.20;99.90;;;;;;5417248;26;20350;-59
2024/04/11 02:42:51;;;;;;;20.93;14.50;;;11.20;99.90;;;;;;5417287;26;20003;-59
2024/04/11 02:45:18;;;;;;;20.87;15.43;;;11.10;99.90;;;;;;5417517;26;19999;-59
2024/04/11 02:47:44;;;;;;;21.00;14.73;;;11.20;99.90;;;;;;5417433;26;20010;-59
2024/04/11 02:50:15;;;;;;;19.30;14.57;;;11.00;99.90;;;;;;5417025;26;20006;-59
2024/04/11 02:52:41;;;;;;;21.03;14.93;;;11.10;99.90;;;;;;5419126;26;20011;-59
2024/04/11 02:55:08;;;;;;;22.63;14.50;;;11.10;99.90;;;;;;5421000;26;20016;-59
2024/04/11 02:57:34;;;;;;;20.03;14.63;;;11.10;99.90;;;;;;5420495;26;20515;-59
2024/04/11 03:00:00;;;;;;;21.57;14.90;;;11.00;99.90;;;;;;5420959;26;20011;-59
2024/04/11 03:02:29;;;;;;;17.67;14.40;;;11.00;99.90;;;;;;5420706;26;19995;-59
2024/04/11 03:04:56;;;;;;;21.17;14.57;;;11.00;99.90;;;;;;5420989;26;20072;-58
2024/04/11 03:07:22;;;;;;;19.67;14.60;;;11.00;99.90;;;;;;5420965;26;19996;-59
2024/04/11 03:09:50;;;;;;;21.53;14.30;;;11.00;99.90;;;;;;5420454;26;19999;-58
2024/04/11 03:12:16;;;;;;;21.80;14.43;;;11.10;99.90;;;;;;5420405;26;19996;-59
2024/04/11 03:14:49;;;;;;;22.17;15.30;;;11.10;99.90;;;;;;5420431;26;20413;-59
2024/04/11 03:17:15;;;;;;;22.07;14.43;;;11.10;99.90;;;;;;5420709;26;19995;-59
2024/04/11 03:19:41;;;;;;;18.67;13.43;;;11.00;99.90;;;;;;5420425;26;20376;-59
2024/04/11 03:22:07;;;;;;;20.23;14.20;;;11.00;99.90;;;;;;5420312;26;20027;-59
2024/04/11 03:24:33;;;;;;;16.30;12.87;;;11.00;99.90;;;;;;5420284;26;19996;-59
2024/04/11 03:27:02;;;;;;;20.23;12.93;;;11.00;99.90;;;;;;5420296;26;20003;-59
2024/04/11 03:29:28;;;;;;;16.77;12.80;;;11.00;99.90;;;;;;5420191;26;20007;-59
2024/04/11 03:31:57;;;;;;;17.13;13.20;;;10.90;99.90;;;;;;5420306;26;20366;-58
2024/04/11 03:34:24;;;;;;;19.93;13.30;;;10.90;99.90;;;;;;5420210;26;19995;-58
2024/04/11 03:36:50;;;;;;;18.00;13.60;;;11.00;99.90;;;;;;5419992;26;20454;-58
2024/04/11 03:39:16;;;;;;;18.60;12.93;;;11.00;99.90;;;;;;5420044;26;20004;-58
2024/04/11 03:41:49;;;;;;;21.50;13.17;;;10.90;99.90;;;;;;5420289;26;20007;-59
2024/04/11 03:44:15;;;;;;;19.13;12.93;;;10.90;99.90;;;;;;5420748;26;19995;-59
2024/04/11 03:46:41;;;;;;;18.17;13.57;;;10.90;99.90;;;;;;5420044;26;20002;-59
2024/04/11 03:49:08;;;;;;;21.87;12.87;;;10.90;99.90;;;;;;5419889;26;19995;-59
2024/04/11 03:51:39;;;;;;;19.20;13.10;;;10.90;99.90;;;;;;5420218;26;20068;-59
2024/04/11 03:54:06;;;;;;;18.47;12.73;;;10.90;99.90;;;;;;5420568;26;20090;-59
2024/04/11 03:56:32;;;;;;;16.20;12.83;;;10.80;99.90;;;;;;5420444;26;20014;-59
2024/04/11 03:58:58;;;;;;;19.63;13.80;;;10.90;99.90;;;;;;5420030;26;19995;-59
2024/04/11 04:01:26;;;;;;;21.20;13.47;;;11.00;99.90;;;;;;5420060;26;20349;-59
2024/04/11 04:03:56;;;;;;;19.53;13.10;;;11.00;99.90;;;;;;5419362;26;20006;-58
2024/04/11 04:06:21;;;;;;;18.03;12.73;;;11.00;99.90;;;;;;5419983;26;19996;-58
2024/04/11 04:08:50;;;;;;;22.90;13.53;;;11.10;99.90;;;;;;5420337;26;20076;-59
2024/04/11 04:11:17;;;;;;;19.97;12.77;;;11.00;99.90;;;;;;5419965;26;20006;-59
2024/04/11 04:13:44;;;;;;;23.13;12.63;;;11.00;99.90;;;;;;5420288;26;20010;-59
2024/04/11 04:16:11;;;;;;;19.00;12.00;;;11.00;99.90;;;;;;5419940;26;20004;-59
2024/04/11 04:18:40;;;;;;;21.47;12.63;;;11.00;99.90;;;;;;5419847;26;20007;-59
2024/04/11 04:21:09;;;;;;;14.03;10.93;;;11.10;99.90;;;;;;5419828;26;20007;-59
2024/04/11 04:23:35;;;;;;;15.00;11.50;;;11.00;99.90;;;;;;5419721;26;20008;-58
2024/04/11 04:26:06;;;;;;;17.40;11.57;;;11.00;99.90;;;;;;5419732;26;20071;-59
2024/04/11 04:28:38;;;;;;;18.10;13.53;;;11.00;99.90;;;;;;5420369;26;20308;-59
2024/04/11 04:31:23;;;;;;;15.57;12.03;;;11.10;99.90;;;;;;5419737;26;20550;-59
2024/04/11 04:33:52;;;;;;;18.93;12.30;;;11.00;99.90;;;;;;5420036;26;19995;-58
2024/04/11 04:36:25;;;;;;;15.47;11.33;;;11.10;99.90;;;;;;5419868;26;20065;-59
2024/04/11 04:38:53;;;;;;;14.20;10.77;;;11.20;99.90;;;;;;5419855;26;19996;-59
2024/04/11 04:41:23;;;;;;;14.53;11.10;;;11.30;99.90;;;;;;5419462;26;20007;-59
2024/04/11 04:43:56;;;;;;;14.47;10.43;;;11.30;99.90;;;;;;5419520;26;20000;-59
2024/04/11 04:46:26;;;;;;;17.60;10.77;;;11.40;99.90;;;;;;5419497;26;20024;-59
2024/04/11 04:48:52;;;;;;;14.80;10.80;;;11.40;99.90;;;;;;5419326;26;20027;-60
2024/04/11 04:51:23;;;;;;;13.03;10.67;;;11.50;99.90;;;;;;5419490;26;20464;-60
2024/04/11 04:53:50;;;;;;;15.87;9.50;;;11.60;99.90;;;;;;5419765;26;20011;-59
2024/04/11 04:56:18;;;;;;;16.67;11.37;;;11.60;99.90;;;;;;5419728;26;20024;-59
2024/04/11 04:58:44;;;;;;;15.10;12.53;;;11.60;99.90;;;;;;5419425;26;20454;-59
2024/04/11 05:01:10;;;;;;;17.23;10.67;;;11.70;99.90;;;;;;5419199;26;20396;-59
2024/04/11 05:03:40;;;;;;;16.93;12.00;;;11.70;99.90;;;;;;5419108;26;20376;-59
2024/04/11 05:06:12;;;;;;;16.43;11.57;;;11.80;99.90;;;;;;5419488;26;20000;-59
2024/04/11 05:08:44;;;;;;;14.20;10.53;;;12.00;99.90;;;;;;5419013;26;19996;-60
2024/04/11 05:11:12;;;;;;;11.63;9.60;;;12.10;99.90;;;;;;5419114;26;20000;-59
2024/04/11 05:13:43;;;;;;;13.67;9.60;;;12.20;99.90;;;;;;5419186;26;19992;-59
2024/04/11 05:16:09;;;;;;;11.73;9.37;;;12.40;99.90;;;;;;5417894;26;20011;-60
2024/04/11 05:18:39;;;;;;;14.33;10.30;;;12.60;99.90;;;;;;5419306;26;20006;-59
2024/04/11 05:21:06;;;;;;;11.10;7.80;;;12.70;99.90;;;;;;5418892;26;20426;-60
2024/04/11 05:23:32;;;;;;;11.13;8.83;;;12.80;99.90;;;;;;5419207;26;20003;-58
2024/04/11 05:26:00;;;;;;;14.70;10.50;;;13.00;99.90;;;;;;5418886;26;20329;-59
2024/04/11 05:28:34;;;;;;;21.37;13.73;;;13.30;99.90;;;;;;5418968;26;20036;-58
2024/04/11 05:31:04;;;;;;;23.83;13.80;;;13.30;99.90;;;;;;5418753;26;20023;-58
2024/04/11 05:33:32;;;;;;;13.33;8.63;;;13.60;99.90;;;;;;5418937;26;19999;-57
2024/04/11 05:35:58;;;;;;;11.50;8.13;;;14.30;99.90;;;;;;5419139;26;20000;-59
2024/04/11 05:38:25;;;;;;;11.67;7.17;;;14.90;99.90;;;;;;5418907;26;19995;-59
2024/04/11 05:40:52;;;;;;;10.20;6.70;;;15.20;99.90;;;;;;5418881;26;19991;-59
2024/04/11 05:43:20;;;;;;;10.87;7.20;;;15.20;99.90;;;;;;5418548;26;20007;-59
2024/04/11 05:45:47;;;;;;;8.83;6.63;;;15.10;99.90;;;;;;5418155;26;20041;-59
2024/04/11 05:48:13;;;;;;;10.50;7.00;;;14.80;99.90;;;;;;5418066;26;19995;-59
2024/04/11 05:50:39;;;;;;;13.73;7.37;;;14.50;99.90;;;;;;5418752;26;20326;-58
2024/04/11 05:53:08;;;;;;;10.53;6.97;;;14.40;99.90;;;;;;5418749;26;20410;-58
2024/04/11 05:55:34;;;;;;;11.60;7.30;;;14.20;99.90;;;;;;5418318;26;20006;-58
2024/04/11 05:57:59;;;;;;;11.00;8.00;;;14.10;99.90;;;;;;5418635;26;19999;-60
2024/04/11 06:00:29;;;;;;;10.57;8.90;;;14.00;99.90;;;;;;5418729;26;20323;-59
2024/04/11 06:02:55;;;;;;;11.87;7.20;;;14.00;99.90;;;;;;5418355;26;20006;-60
2024/04/11 06:05:22;;;;;;;18.10;12.27;;;14.00;99.90;;;;;;5418494;26;20000;-59
2024/04/11 06:07:49;;;;;;;14.33;8.83;;;14.10;99.90;;;;;;5418109;26;20040;-60
2024/04/11 06:10:20;;;;;;;11.90;8.73;;;14.20;99.90;;;;;;5418045;26;19995;-59
2024/04/11 06:12:46;;;;;;;14.23;9.30;;;14.30;99.90;;;;;;5418038;26;20031;-59
2024/04/11 06:15:13;;;;;;;20.03;9.80;;;14.40;99.90;;;;;;5418449;26;19999;-59
2024/04/11 06:17:42;;;;;;;10.20;8.13;;;14.50;99.90;;;;;;5418507;26;20032;-61
2024/04/11 06:20:15;;;;;;;11.00;7.80;;;14.60;99.90;;;;;;5417904;26;20326;-59
2024/04/11 06:22:46;;;;;;;10.70;7.83;;;14.70;99.90;;;;;;5418155;26;20431;-58
2024/04/11 06:25:12;;;;;;;16.20;8.57;;;14.70;99.90;;;;;;5417930;26;19996;-59
2024/04/11 06:27:40;;;;;;;12.90;8.37;;;14.90;99.90;;;;;;5420919;26;20007;-59
2024/04/11 06:30:12;;;;;;;11.97;7.30;;;15.00;99.90;;;;;;5421625;26;19999;-60
2024/04/11 06:32:38;;;;;;;9.90;7.07;;;15.10;99.90;;;;;;5421242;26;19999;-59
2024/04/11 06:35:04;;;;;;;18.23;7.80;;;15.30;99.90;;;;;;5421363;26;20003;-59
2024/04/11 06:37:31;;;;;;;15.80;7.30;;;15.20;99.90;;;;;;5421573;26;20024;-59
2024/04/11 06:39:58;;;;;;;10.33;6.93;;;15.20;99.90;;;;;;5421646;26;20010;-59
2024/04/11 06:42:25;;;;;;;12.30;7.40;;;15.40;99.90;;;;;;5421479;26;19991;-59
2024/04/11 06:44:50;;;;;;;13.13;8.10;;;15.50;99.90;;;;;;5421107;26;19999;-59
2024/04/11 06:47:19;;;;;;;11.70;8.52;;;15.90;97.80;;;;;;5421058;26;19999;-59
2024/04/11 06:49:47;;;;;;;11.73;7.22;;;16.40;94.90;;;;;;5421012;26;20458;-59
2024/04/11 06:52:14;;;;;;;11.73;6.80;;;16.50;93.80;;;;;;5421324;26;20010;-59
2024/04/11 06:54:46;;;;;;;11.45;6.78;;;17.00;91.20;;;;;;5421237;26;20010;-59
2024/04/11 06:57:14;;;;;;;15.55;6.85;;;18.00;81.70;;;;;;5421140;26;20011;-58
2024/04/11 06:59:40;;;;;;;17.50;6.40;;;19.40;77.40;;;;;;5420988;26;20069;-58
2024/04/11 07:02:07;;;;;;;10.07;5.75;;;20.70;68.90;;;;;;5420898;26;20007;-59
2024/04/11 07:04:33;;;;;;;11.13;6.85;;;20.80;66.20;;;;;;5421223;26;20064;-59
2024/04/11 07:07:00;;;;;;;11.55;8.10;;;21.30;65.90;;;;;;5421570;26;19999;-59
2024/04/11 07:09:37;;;;;;;11.50;5.97;;;22.60;61.80;;;;;;5421025;26;20027;-59
2024/04/11 07:12:10;;;;;;;14.80;6.22;;;23.70;57.70;;;;;;5421988;26;19999;-59
2024/04/11 07:14:42;;;;;;;6.60;5.60;;;24.80;56.10;;;;;;5421330;26;20410;-59
2024/04/11 07:17:11;;;;;;;11.25;6.07;;;25.00;54.90;;;;;;5420731;26;19996;-60
2024/04/11 07:19:42;;;;;;;12.32;5.60;;;25.50;54.20;;;;;;5420604;26;20003;-59
2024/04/11 07:22:09;;;;;;;7.25;4.95;;;25.80;52.90;;;;;;5420690;26;20007;-60
2024/04/11 07:24:37;;;;;;;8.68;5.13;;;26.40;51.40;;;;;;5420865;26;19999;-60
2024/04/11 07:27:11;;;;;;;7.90;4.95;;;26.00;52.60;;;;;;5420592;26;20000;-60
2024/04/11 07:29:38;;;;;;;8.15;5.00;;;25.60;51.70;;;;;;5421117;26;20061;-60
2024/04/11 07:32:05;;;;;;;12.00;5.60;;;25.70;52.10;;;;;;5420523;26;20438;-59
2024/04/11 07:34:31;;;;;;;8.93;4.50;;;25.80;51.60;;;;;;5420330;26;19995;-60
2024/04/11 07:36:56;;;;;;;9.80;4.82;;;25.90;51.60;;;;;;5420265;26;20315;-59
2024/04/11 07:39:22;;;;;;;7.95;5.68;;;26.40;50.30;;;;;;5419786;26;20000;-60
2024/04/11 07:42:00;;;;;;;9.13;5.22;;;25.90;51.00;;;;;;5420629;26;20003;-60
2024/04/11 07:44:26;;;;;;;7.18;5.10;;;25.90;51.00;;;;;;5421132;26;20006;-60
2024/04/11 07:46:53;;;;;;;7.47;4.78;;;26.30;50.60;;;;;;5420625;26;20015;-62
2024/04/11 07:49:20;;;;;;;14.57;5.68;;;26.30;50.50;;;;;;5420074;26;20426;-62
2024/04/11 07:51:45;;;;;;;9.38;4.88;;;25.70;50.80;;;;;;5420303;26;20069;-61
2024/04/11 07:54:15;;;;;;;10.45;4.85;;;26.20;51.20;;;;;;5420194;26;20000;-60
2024/04/11 07:56:41;;;;;;;6.93;4.35;;;27.20;50.40;;;;;;5420135;26;20318;-61
2024/04/11 07:59:11;;;;;;;7.88;5.22;;;28.30;48.30;;;;;;5420089;26;19991;-61
2024/04/11 08:47:06;;;;;;;8.95;5.20;;;34.30;40.20;;;;;;5472781;26;20075;-48
2024/04/11 08:49:32;;;;;;;11.63;4.93;;;35.90;38.70;;;;;;5472798;26;19995;-50
2024/04/11 08:51:59;;;;;;;13.02;6.28;;;35.70;38.90;;;;;;5472681;26;20381;-49
2024/04/11 08:54:26;;;;;;;11.05;4.80;;;36.50;38.10;;;;;;5473000;26;20321;-49
2024/04/11 08:56:52;;;;;;;6.97;4.70;;;36.90;37.40;;;;;;5472550;26;19998;-51
2024/04/11 08:59:19;;;;;;;17.13;6.18;;;37.00;37.40;;;;;;5472480;26;19991;-49
2024/04/11 09:01:45;;;;;;;9.80;5.57;;;36.20;37.70;;;;;;5472614;26;20003;-52
2024/04/11 09:04:11;;;;;;;9.75;5.32;;;36.30;38.80;;;;;;5472586;26;19991;-49
2024/04/11 09:06:37;;;;;;;8.10;4.40;;;36.50;37.70;;;;;;5472568;26;20317;-50
2024/04/11 09:09:10;;;;;;;10.40;4.75;;;35.60;37.60;;;;;;5472482;26;20005;-50
2024/04/11 09:11:36;;;;;;;5.68;4.10;;;35.00;39.20;;;;;;5472467;26;20066;-53
2024/04/11 09:14:01;;;;;;;10.43;4.57;;;35.50;39.60;;;;;;5472817;26;19994;-53
2024/04/11 09:16:27;;;;;;;11.27;5.25;;;36.00;38.20;;;;;;5472227;26;20017;-50
2024/04/11 09:19:09;;;;;;;10.13;5.18;;;34.20;38.70;;;;;;5472727;26;19991;-50
2024/04/11 09:21:46;;;;;;;9.95;4.85;;;32.80;39.80;;;;;;5472696;26;19998;-52
2024/04/11 09:24:16;;;;;;;8.73;4.43;;;31.70;41.30;;;;;;5472593;26;20039;-53
2024/04/11 09:26:49;;;;;;;9.43;5.18;;;31.20;42.00;;;;;;5472146;26;20054;-53
2024/04/11 09:29:17;;;;;;;10.07;5.55;;;29.50;42.70;;;;;;5472197;26;20009;-51
2024/04/11 09:31:43;;;;;;;11.63;5.65;;;28.00;45.20;;;;;;5472301;26;19995;-54
2024/04/11 09:34:13;;;;;;;10.48;5.60;;;26.80;46.90;;;;;;5472012;26;20036;-53
2024/04/11 09:36:49;;;;;;;13.25;5.43;;;26.10;48.30;;;;;;5471950;26;20329;-52
2024/04/11 09:39:41;;;;;;;9.60;5.97;;;25.50;49.10;;;;;;5471971;26;20123;-53
2024/04/11 09:42:11;;;;;;;9.00;6.05;;;24.90;50.20;;;;;;5472139;26;20018;-51
2024/04/11 09:44:46;;;;;;;11.90;5.88;;;24.30;51.60;;;;;;5472443;26;20034;-53
2024/04/11 09:47:34;;;;;;;11.55;7.38;;;23.80;52.70;;;;;;5462462;26;20071;-51
2024/04/11 09:50:04;;;;;;;9.65;5.63;;;23.80;53.40;;;;;;5456170;26;20316;-51
2024/04/11 09:52:34;;;;;;;10.23;6.20;;;23.80;53.90;;;;;;5456259;26;20014;-52
2024/04/11 09:55:07;;;;;;;11.63;6.00;;;23.60;53.50;;;;;;5456432;26;20005;-52
2024/04/11 09:57:36;;;;;;;14.00;5.60;;;23.40;53.70;;;;;;5456704;26;20413;-49
2024/04/11 10:00:18;;;;;;;11.50;6.28;;;23.40;55.10;;;;;;5456566;26;19995;-52
2024/04/11 10:02:45;;;;;;;14.38;5.63;;;23.50;55.10;;;;;;5456111;26;19994;-50
2024/04/11 10:05:16;;;;;;;10.27;5.97;;;23.60;54.40;;;;;;5456382;26;20463;-52
2024/04/11 10:07:45;;;;;;;9.07;5.80;;;23.50;54.30;;;;;;5455897;26;20003;-51
2024/04/11 10:10:25;;;;;;;10.80;5.88;;;23.30;54.60;;;;;;5455766;26;19994;-49
2024/04/11 10:12:54;;;;;;;12.77;5.95;;;23.30;54.10;;;;;;5456028;26;20433;-49
2024/04/11 10:15:29;;;;;;;11.93;6.00;;;23.50;55.30;;;;;;5455812;26;20006;-51
2024/04/11 10:18:08;;;;;;;11.05;5.45;;;23.60;54.80;;;;;;5455891;26;19995;-51
2024/04/11 10:20:42;;;;;;;14.35;6.20;;;23.20;53.00;;;;;;5456521;26;19999;-50
2024/04/11 10:23:09;;;;;;;15.68;5.65;;;23.20;55.80;;;;;;5455850;26;20005;-51
2024/04/11 10:25:39;;;;;;;8.27;5.15;;;23.20;54.90;;;;;;5455917;26;20453;-51
2024/04/11 10:28:18;;;;;;;10.70;6.05;;;23.10;54.80;;;;;;5456264;26;20002;-49
2024/04/11 10:30:50;;;;;;;17.50;6.50;;;23.20;55.10;;;;;;5455991;26;20031;-50
2024/04/11 10:33:29;;;;;;;11.13;5.78;;;22.90;56.00;;;;;;5455847;26;19991;-51
2024/04/11 10:35:56;;;;;;;12.32;6.70;;;22.80;55.90;;;;;;5454308;26;20040;-49
2024/04/11 10:38:27;;;;;;;10.00;5.85;;;22.30;57.70;;;;;;5455339;26;19991;-50
2024/04/11 10:40:54;;;;;;;9.98;5.53;;;22.30;57.50;;;;;;5455939;26;19999;-51
2024/04/11 10:43:24;;;;;;;14.45;6.18;;;22.50;57.00;;;;;;5455956;26;19995;-48
2024/04/11 10:45:53;;;;;;;15.00;6.45;;;22.30;56.10;;;;;;5455837;26;19999;-50
2024/04/11 10:48:24;;;;;;;12.93;6.00;;;22.30;57.20;;;;;;5455860;26;20096;-50
2024/04/11 10:50:50;;;;;;;14.43;5.97;;;22.20;56.60;;;;;;5456264;26;20032;-53
2024/04/11 10:53:24;;;;;;;11.10;5.60;;;22.00;57.50;;;;;;5455383;26;20005;-50
2024/04/11 10:55:55;;;;;;;10.85;6.18;;;21.90;57.80;;;;;;5455279;26;20457;-50
2024/04/11 10:58:28;;;;;;;12.15;5.65;;;21.70;57.40;;;;;;5453647;26;20067;-50
2024/04/11 11:03:40;;;;;;;12.52;7.00;;;21.70;58.80;;;;;;5455696;26;20002;-49
2024/04/11 11:06:24;;;;;;;11.05;6.15;;;21.80;58.40;;;;;;5455088;26;20002;-52
2024/04/11 11:08:58;;;;;;;9.15;6.75;;;21.90;58.00;;;;;;5455466;26;20006;-54
2024/04/11 11:11:25;;;;;;;12.57;6.57;;;21.70;58.00;;;;;;5455630;26;19999;-50
2024/04/11 11:14:00;;;;;;;10.77;6.18;;;21.60;58.40;;;;;;5455464;26;20009;-50
2024/04/11 11:16:31;;;;;;;12.48;5.85;;;21.70;58.80;;;;;;5455065;26;20362;-50
2024/04/11 11:19:00;;;;;;;8.93;5.47;;;21.70;59.40;;;;;;5455846;26;20052;-51
2024/04/11 11:21:32;;;;;;;10.50;6.05;;;21.60;59.30;;;;;;5454951;26;19991;-50
2024/04/11 11:24:01;;;;;;;12.45;5.93;;;21.50;58.50;;;;;;5455136;26;20329;-52
2024/04/11 11:26:43;;;;;;;14.40;6.50;;;21.60;59.50;;;;;;5454968;26;20069;-50
2024/04/11 11:29:10;;;;;;;11.55;5.57;;;21.60;59.30;;;;;;5455505;26;20346;-50
2024/04/11 11:31:43;;;;;;;11.98;5.28;;;21.50;58.40;;;;;;5454902;26;20492;-48
2024/04/11 11:34:09;;;;;;;10.52;5.60;;;21.40;58.40;;;;;;5454915;26;20071;-50
2024/04/11 11:36:45;;;;;;;11.57;5.75;;;21.20;59.70;;;;;;5454844;26;20014;-50
2024/04/11 11:39:25;;;;;;;9.73;5.47;;;21.10;59.70;;;;;;5455024;26;19998;-50
2024/04/11 11:42:00;;;;;;;10.55;5.80;;;21.20;59.70;;;;;;5455258;26;20006;-50
2024/04/11 11:44:34;;;;;;;10.45;5.53;;;21.20;59.40;;;;;;5455008;26;19990;-52
2024/04/11 11:47:08;;;;;;;9.55;5.22;;;21.10;60.00;;;;;;5455183;26;20462;-54
2024/04/11 11:49:38;;;;;;;8.02;5.15;;;21.10;58.90;;;;;;5455120;26;19994;-51
2024/04/11 11:52:05;;;;;;;8.48;5.07;;;21.20;60.00;;;;;;5454909;26;20009;-50
2024/04/11 11:54:34;;;;;;;13.70;5.20;;;21.30;59.00;;;;;;5454600;26;19999;-53
2024/04/11 11:57:17;;;;;;;12.60;5.63;;;21.20;59.50;;;;;;5454427;26;19995;-53
2024/04/11 11:59:46;;;;;;;10.30;5.40;;;21.30;59.40;;;;;;5454473;26;19999;-55
2024/04/11 12:02:15;;;;;;;10.43;5.72;;;21.30;59.50;;;;;;5454415;26;20001;-55
2024/04/11 12:04:44;;;;;;;9.50;5.47;;;21.10;59.20;;;;;;5454315;26;20005;-56
2024/04/11 12:07:13;;;;;;;10.52;5.82;;;21.10;60.00;;;;;;5454308;26;20009;-56
2024/04/11 12:09:44;;;;;;;8.60;5.22;;;21.00;59.80;;;;;;5454235;26;19995;-54
2024/04/11 12:12:30;;;;;;;8.77;5.28;;;21.00;60.60;;;;;;5454275;26;19994;-51
2024/04/11 12:14:56;;;;;;;14.55;9.05;;;21.00;59.40;;;;;;5454350;26;19999;-55
2024/04/11 12:17:26;;;;;;;10.02;6.53;;;21.10;60.90;;;;;;5454549;26;20009;-53
2024/04/11 12:20:05;;;;;;;16.33;9.73;;;21.10;62.00;;;;;;5454295;26;20031;-56
2024/04/11 12:22:34;;;;;;;7.57;5.15;;;21.10;61.60;;;;;;5454713;26;19995;-54
2024/04/11 12:25:01;;;;;;;9.25;4.40;;;21.10;60.90;;;;;;5454111;26;20006;-52
2024/04/11 12:27:28;;;;;;;8.88;5.25;;;21.00;60.40;;;;;;5454365;26;19999;-51
2024/04/11 12:29:58;;;;;;;10.45;4.95;;;21.00;61.30;;;;;;5454171;26;20324;-49
2024/04/11 12:32:25;;;;;;;11.85;5.03;;;20.90;60.60;;;;;;5453999;26;20002;-53
2024/04/11 12:34:56;;;;;;;8.45;4.82;;;21.10;60.60;;;;;;5453819;26;20006;-51
2024/04/11 12:37:25;;;;;;;12.68;4.70;;;21.10;61.70;;;;;;5453901;26;19995;-56
2024/04/11 12:39:55;;;;;;;7.85;4.68;;;21.10;60.40;;;;;;5453840;26;20003;-54
2024/04/11 12:42:29;;;;;;;15.65;8.35;;;21.10;60.60;;;;;;5453883;26;20003;-55
2024/04/11 12:44:58;;;;;;;7.65;4.53;;;20.90;61.90;;;;;;5453705;26;19998;-54
2024/04/11 12:47:38;;;;;;;8.23;4.78;;;21.10;61.20;;;;;;5453995;26;19991;-57
2024/04/11 12:50:12;;;;;;;7.03;4.82;;;21.10;61.30;;;;;;5453977;26;19994;-55
2024/04/11 12:52:44;;;;;;;8.00;4.70;;;21.20;60.20;;;;;;5453817;26;20009;-53
2024/04/11 12:55:13;;;;;;;7.72;4.75;;;21.20;60.80;;;;;;5453685;26;20442;-52
2024/04/11 12:57:39;;;;;;;7.15;4.68;;;21.30;61.60;;;;;;5453557;26;20003;-55
2024/04/11 13:00:32;;;;;;;11.00;5.05;;;21.40;60.30;;;;;;5453295;26;20005;-53
2024/04/11 13:03:06;;;;;;;12.70;4.72;;;21.50;60.00;;;;;;5453558;26;20030;-51
2024/04/11 13:05:40;;;;;;;6.78;4.63;;;21.50;60.30;;;;;;5453962;26;19999;-51
2024/04/11 13:08:07;;;;;;;9.52;4.60;;;21.60;59.90;;;;;;5453434;26;19994;-54
2024/04/11 13:10:34;;;;;;;9.02;5.25;;;21.60;59.90;;;;;;5453361;26;20353;-54
2024/04/11 13:13:02;;;;;;;10.68;4.43;;;21.60;60.70;;;;;;5453185;26;20422;-54
2024/04/11 13:15:43;;;;;;;13.00;5.43;;;21.50;59.50;;;;;;5453395;26;20345;-55
2024/04/11 13:18:12;;;;;;;6.40;4.28;;;21.50;60.00;;;;;;5453821;26;20011;-53
2024/04/11 13:20:39;;;;;;;9.88;5.28;;;21.60;59.70;;;;;;5453172;26;20023;-54
2024/04/11 13:23:11;;;;;;;6.78;4.28;;;21.80;59.60;;;;;;5456314;26;20006;-54
2024/04/11 13:25:37;;;;;;;7.72;4.63;;;21.90;59.60;;;;;;5456794;26;20014;-55
2024/04/11 13:28:05;;;;;;;9.77;3.85;;;22.10;60.60;;;;;;5457006;26;20441;-54
2024/04/11 13:30:32;;;;;;;8.50;4.32;;;22.00;59.50;;;;;;5456685;26;20021;-54
2024/04/11 13:33:03;;;;;;;9.70;4.90;;;21.90;59.60;;;;;;5456640;26;20441;-53
2024/04/11 13:35:37;;;;;;;6.63;4.10;;;22.00;59.60;;;;;;5456504;26;20461;-53